Terminal Aerodrome Forecast
Issued by NWS Corpus Christi, TX

Home | Current Version | Previous Version | Text Only | Print | Product List | Glossary On
Versions: 1 2 3 4 5 6 7 8 9 10 11 12 13 14 15 16 17
000
FTUS44 KCRP 050528
TAFCRP
TAF
KCRP 050528Z 0506/0606 15010KT P6SM SCT025 BKN250
     FM051000 16008KT P6SM SCT015
      TEMPO 0511/0514 BKN015
     FM051400 15015G25KT P6SM SCT035
     FM060000 15010KT P6SM FEW020=

USA.gov is the U.S. government's official web portal to all federal, state and local government web resources and services.